Time;durP1;ratioP1;P1;durP2;ratioP2;P2;SDS_P1;SDS_P2;PMS_P1;PMS_P2;Temp;Humidity;BMP_temperature;BMP_pressure;BME280_temperature;BME280_humidity;BME280_pressure;Samples;Min_cycle;Max_cycle;Signal;HPM_P1;HPM_P2
2022/08/21 00:00:24;;;;;;;7.13;4.63;;;;;;;;;;6285754;28;20068;-82
2022/08/21 00:03:25;;;;;;;6.50;4.80;;;;;;;;;;6305984;28;20601;-81
2022/08/21 00:06:27;;;;;;;9.55;5.20;;;;;;;;;;6290764;28;20137;-81
2022/08/21 00:09:29;;;;;;;7.13;5.07;;;;;;;;;;6285871;28;20080;-81
2022/08/21 00:12:31;;;;;;;9.23;4.80;;;;;;;;;;6299584;28;20569;-81
2022/08/21 00:15:34;;;;;;;7.05;5.05;;;;;;;;;;6284712;28;20095;-82
2022/08/21 00:18:36;;;;;;;7.72;5.00;;;;;;;;;;6288814;28;20044;-82
2022/08/21 00:21:38;;;;;;;7.60;4.32;;;;;;;;;;6296579;28;20116;-81
2022/08/21 00:24:40;;;;;;;11.68;5.82;;;;;;;;;;6286619;28;20409;-81
2022/08/21 00:27:42;;;;;;;9.60;5.30;;;;;;;;;;6291799;28;20127;-82
2022/08/21 00:30:44;;;;;;;10.77;5.50;;;;;;;;;;6280710;27;20575;-81
2022/08/21 00:33:46;;;;;;;7.68;5.00;;;;;;;;;;6279686;27;20067;-81
2022/08/21 00:36:47;;;;;;;8.00;5.13;;;;;;;;;;6280858;28;20110;-81
2022/08/21 00:39:49;;;;;;;7.68;5.00;;;;;;;;;;6297882;28;20157;-81
2022/08/21 00:42:51;;;;;;;7.55;4.93;;;;;;;;;;6298407;28;20040;-81
2022/08/21 00:45:55;;;;;;;12.30;5.35;;;;;;;;;;6277954;28;20056;-82
2022/08/21 00:48:58;;;;;;;8.00;4.90;;;;;;;;;;6282689;28;20049;-81
2022/08/21 00:52:00;;;;;;;7.50;4.90;;;;;;;;;;6286925;28;20094;-81
2022/08/21 00:55:05;;;;;;;8.95;5.20;;;;;;;;;;6279198;28;20534;-80
2022/08/21 00:58:12;;;;;;;8.40;5.05;;;;;;;;;;6284697;28;20490;-81
2022/08/21 01:01:15;;;;;;;6.68;5.20;;;;;;;;;;6285097;28;20067;-79
2022/08/21 01:04:20;;;;;;;8.10;5.57;;;;;;;;;;6293807;28;20040;-80
2022/08/21 01:07:22;;;;;;;9.93;5.60;;;;;;;;;;6279160;28;20477;-80
2022/08/21 01:10:28;;;;;;;11.10;5.43;;;;;;;;;;6284684;28;20048;-80
2022/08/21 01:13:33;;;;;;;7.97;5.07;;;;;;;;;;6286386;28;20090;-82
2022/08/21 01:16:35;;;;;;;8.00;4.95;;;;;;;;;;6288121;28;20489;-81
2022/08/21 01:19:37;;;;;;;9.75;5.30;;;;;;;;;;6288445;28;20048;-79
2022/08/21 01:22:38;;;;;;;10.82;5.43;;;;;;;;;;6284193;28;20041;-80
2022/08/21 01:25:40;;;;;;;8.77;5.80;;;;;;;;;;6285394;28;20052;-82
2022/08/21 01:28:49;;;;;;;9.45;6.25;;;;;;;;;;6282561;28;20438;-81
2022/08/21 01:31:50;;;;;;;7.03;5.00;;;;;;;;;;6277642;28;20068;-81
2022/08/21 01:34:53;;;;;;;10.80;5.47;;;;;;;;;;6287649;28;20104;-81
2022/08/21 01:37:55;;;;;;;9.50;5.68;;;;;;;;;;6281735;28;20084;-80
2022/08/21 01:40:57;;;;;;;8.93;5.43;;;;;;;;;;6286171;28;21787;-81
2022/08/21 01:43:59;;;;;;;10.32;5.45;;;;;;;;;;6287600;28;20130;-79
2022/08/21 01:47:04;;;;;;;7.60;5.30;;;;;;;;;;6284740;28;20102;-81
2022/08/21 01:50:08;;;;;;;10.05;5.05;;;;;;;;;;6268578;28;20138;-80
2022/08/21 01:53:10;;;;;;;10.57;5.45;;;;;;;;;;6288189;28;20104;-82
2022/08/21 01:56:14;;;;;;;8.60;5.45;;;;;;;;;;6298401;28;20104;-80
2022/08/21 01:59:16;;;;;;;8.15;5.20;;;;;;;;;;6300147;28;20056;-79
2022/08/21 02:02:17;;;;;;;7.63;5.18;;;;;;;;;;6286312;28;20045;-79
2022/08/21 02:05:19;;;;;;;8.20;5.38;;;;;;;;;;6294215;28;20068;-81
2022/08/21 02:08:23;;;;;;;7.97;5.40;;;;;;;;;;6290996;28;20554;-81
2022/08/21 02:11:24;;;;;;;9.38;5.20;;;;;;;;;;6299825;28;20059;-79
2022/08/21 02:14:26;;;;;;;8.35;5.38;;;;;;;;;;6287268;28;20652;-80
2022/08/21 02:17:41;;;;;;;9.55;5.85;;;;;;;;;;6281144;28;20144;-82
2022/08/21 02:20:45;;;;;;;9.43;5.43;;;;;;;;;;6284209;28;20048;-80
2022/08/21 02:23:47;;;;;;;9.55;5.63;;;;;;;;;;6291112;28;20098;-81
2022/08/21 02:26:49;;;;;;;9.10;5.95;;;;;;;;;;6284091;28;20068;-81
2022/08/21 02:29:50;;;;;;;11.27;5.40;;;;;;;;;;6287600;28;20041;-81
2022/08/21 02:32:52;;;;;;;10.48;5.40;;;;;;;;;;6286685;28;20086;-81
2022/08/21 02:35:56;;;;;;;10.07;5.80;;;;;;;;;;6283078;28;20044;-78
2022/08/21 02:38:57;;;;;;;8.85;5.63;;;;;;;;;;6293204;28;20083;-81
2022/08/21 02:41:59;;;;;;;11.63;5.88;;;;;;;;;;6285636;28;20112;-80
2022/08/21 02:45:00;;;;;;;12.18;5.68;;;;;;;;;;6291711;28;20052;-80
2022/08/21 02:48:09;;;;;;;9.57;5.45;;;;;;;;;;6295025;28;20049;-80
2022/08/21 02:51:17;;;;;;;8.50;5.35;;;;;;;;;;6294301;28;20056;-81
2022/08/21 02:54:19;;;;;;;9.10;5.60;;;;;;;;;;6295576;28;20112;-81
2022/08/21 02:57:20;;;;;;;10.27;6.35;;;;;;;;;;6298429;28;20456;-82
2022/08/21 03:00:24;;;;;;;11.95;5.90;;;;;;;;;;6273634;28;20473;-81
2022/08/21 03:03:27;;;;;;;11.55;6.57;;;;;;;;;;6288241;28;20064;-78
2022/08/21 03:06:29;;;;;;;11.55;6.68;;;;;;;;;;6293719;28;20163;-82
2022/08/21 03:09:30;;;;;;;11.68;6.25;;;;;;;;;;6287243;28;20068;-81
2022/08/21 03:12:32;;;;;;;9.63;6.13;;;;;;;;;;6288706;28;20043;-80
2022/08/21 03:15:34;;;;;;;10.88;6.07;;;;;;;;;;6289668;28;20114;-82
2022/08/21 03:18:37;;;;;;;9.05;5.10;;;;;;;;;;6294428;28;20059;-82
2022/08/21 03:21:40;;;;;;;8.90;5.50;;;;;;;;;;6290551;28;20051;-82
2022/08/21 03:24:42;;;;;;;9.15;5.60;;;;;;;;;;6284236;28;20072;-81
2022/08/21 03:27:44;;;;;;;11.07;6.30;;;;;;;;;;6284692;28;20052;-81
2022/08/21 03:30:50;;;;;;;10.40;6.57;;;;;;;;;;6309508;28;20234;-81
2022/08/21 03:33:54;;;;;;;11.48;6.20;;;;;;;;;;6288218;28;20041;-82
2022/08/21 03:36:56;;;;;;;12.68;6.05;;;;;;;;;;6280986;28;20506;-80
2022/08/21 03:39:58;;;;;;;10.23;5.63;;;;;;;;;;6288235;28;20177;-82
2022/08/21 03:42:59;;;;;;;10.98;6.18;;;;;;;;;;6297280;28;20052;-81
2022/08/21 03:46:03;;;;;;;13.45;6.32;;;;;;;;;;6285804;28;20072;-78
2022/08/21 03:49:04;;;;;;;11.52;6.43;;;;;;;;;;6299631;28;20041;-79
2022/08/21 03:52:06;;;;;;;10.70;6.53;;;;;;;;;;6287207;28;20135;-80
2022/08/21 03:55:08;;;;;;;11.18;6.72;;;;;;;;;;6283480;28;20122;-78
2022/08/21 03:58:10;;;;;;;11.52;6.20;;;;;;;;;;6290754;28;20190;-79
2022/08/21 04:01:17;;;;;;;13.40;7.15;;;;;;;;;;6285076;28;20036;-79
2022/08/21 04:04:19;;;;;;;11.07;7.03;;;;;;;;;;6290068;28;20036;-79
2022/08/21 04:07:21;;;;;;;13.50;7.60;;;;;;;;;;6284126;28;20067;-79
2022/08/21 04:10:24;;;;;;;10.52;6.90;;;;;;;;;;6289687;28;20175;-79
2022/08/21 04:13:27;;;;;;;11.90;6.95;;;;;;;;;;6296607;28;20385;-79
2022/08/21 04:16:30;;;;;;;10.90;5.95;;;;;;;;;;6292036;28;20117;-79
2022/08/21 04:19:32;;;;;;;10.93;6.10;;;;;;;;;;6284419;28;20131;-80
2022/08/21 04:22:33;;;;;;;9.70;5.93;;;;;;;;;;6294940;28;20076;-80
2022/08/21 04:25:35;;;;;;;8.80;6.40;;;;;;;;;;6297549;28;20127;-79
2022/08/21 04:28:37;;;;;;;10.52;6.15;;;;;;;;;;6290133;28;20098;-79
2022/08/21 04:31:38;;;;;;;10.25;6.30;;;;;;;;;;6285038;28;20170;-77
2022/08/21 04:34:40;;;;;;;10.75;6.18;;;;;;;;;;6274751;28;20120;-79
2022/08/21 04:37:42;;;;;;;11.18;6.25;;;;;;;;;;6288470;28;20048;-78
2022/08/21 04:40:44;;;;;;;12.93;6.68;;;;;;;;;;6284993;28;20044;-79
2022/08/21 04:43:46;;;;;;;8.05;5.78;;;;;;;;;;6282052;28;20692;-79
2022/08/21 04:46:47;;;;;;;12.15;5.97;;;;;;;;;;6278989;28;20070;-79
2022/08/21 04:49:50;;;;;;;11.63;6.50;;;;;;;;;;6286193;28;20072;-79
2022/08/21 04:52:52;;;;;;;13.82;6.25;;;;;;;;;;6300024;28;20167;-79
2022/08/21 04:55:56;;;;;;;13.00;6.80;;;;;;;;;;6280638;28;20127;-79
2022/08/21 04:59:03;;;;;;;11.65;7.30;;;;;;;;;;6295887;28;20450;-78
2022/08/21 05:02:06;;;;;;;10.93;6.97;;;;;;;;;;6283756;28;20076;-79
2022/08/21 05:05:08;;;;;;;;;;;;;;;;;;6286204;28;20129;-77
2022/08/21 05:08:15;;;;;;;13.25;7.25;;;;;;;;;;6254149;28;19974;-79
2022/08/21 05:11:17;;;;;;;11.95;7.40;;;;;;;;;;6283233;28;20115;-78
2022/08/21 05:14:19;;;;;;;12.07;7.55;;;;;;;;;;6283193;28;20048;-80
2022/08/21 05:17:21;;;;;;;10.95;6.95;;;;;;;;;;6279861;28;20093;-78
2022/08/21 05:20:22;;;;;;;10.52;6.97;;;;;;;;;;6279656;28;20105;-78
2022/08/21 05:23:24;;;;;;;11.35;6.88;;;;;;;;;;6283738;28;20068;-78
2022/08/21 05:26:26;;;;;;;15.50;8.68;;;;;;;;;;6287737;28;20037;-80
2022/08/21 05:29:31;;;;;;;13.13;8.43;;;;;;;;;;6289829;28;20117;-79
2022/08/21 05:32:41;;;;;;;13.65;7.43;;;;;;;;;;6283739;28;20055;-80
2022/08/21 05:35:43;;;;;;;12.50;8.02;;;;;;;;;;6274054;28;20124;-80
2022/08/21 05:38:45;;;;;;;13.85;7.65;;;;;;;;;;6282563;28;20049;-79
2022/08/21 05:41:47;;;;;;;13.10;7.75;;;;;;;;;;6282372;28;20131;-79
2022/08/21 05:44:49;;;;;;;12.07;8.13;;;;;;;;;;6285853;28;20104;-80
2022/08/21 05:47:50;;;;;;;12.90;7.63;;;;;;;;;;6284127;28;20068;-80
2022/08/21 05:50:52;;;;;;;13.38;7.90;;;;;;;;;;6293609;28;20588;-80
2022/08/21 05:53:53;;;;;;;11.13;7.18;;;;;;;;;;6287306;28;20131;-80
2022/08/21 05:56:56;;;;;;;13.70;7.63;;;;;;;;;;6303463;28;20076;-80
2022/08/21 05:59:57;;;;;;;11.63;7.80;;;;;;;;;;6283842;28;20175;-78
2022/08/21 06:02:59;;;;;;;12.63;7.45;;;;;;;;;;6292096;28;20123;-80
2022/08/21 06:06:02;;;;;;;11.43;7.63;;;;;;;;;;6281936;28;20143;-81
2022/08/21 06:09:04;;;;;;;11.88;7.55;;;;;;;;;;6282273;28;20124;-79
2022/08/21 06:12:11;;;;;;;15.30;7.75;;;;;;;;;;6282164;28;20044;-80
2022/08/21 06:15:13;;;;;;;11.77;7.38;;;;;;;;;;6279906;28;20124;-80
2022/08/21 06:18:15;;;;;;;13.88;7.32;;;;;;;;;;6284379;28;20086;-81
2022/08/21 06:21:17;;;;;;;12.55;7.53;;;;;;;;;;6278544;28;20126;-80
2022/08/21 06:24:18;;;;;;;11.23;7.55;;;;;;;;;;6287109;28;20194;-79
2022/08/21 06:27:20;;;;;;;11.98;7.88;;;;;;;;;;6288303;28;20056;-80
2022/08/21 06:30:27;;;;;;;11.85;7.55;;;;;;;;;;6280963;28;20049;-80
2022/08/21 06:33:28;;;;;;;10.65;7.18;;;;;;;;;;6278609;28;20037;-80
2022/08/21 06:36:33;;;;;;;12.80;8.10;;;;;;;;;;6277810;28;20108;-80
2022/08/21 06:39:35;;;;;;;11.27;7.22;;;;;;;;;;6277081;28;20120;-81
2022/08/21 06:42:38;;;;;;;10.77;7.20;;;;;;;;;;6281999;28;20045;-79
2022/08/21 06:45:42;;;;;;;11.18;7.07;;;;;;;;;;6267110;28;20047;-79
2022/08/21 06:48:44;;;;;;;10.27;7.25;;;;;;;;;;6284681;28;20075;-80
2022/08/21 06:51:45;;;;;;;9.63;6.97;;;;;;;;;;6281680;28;20566;-80
2022/08/21 06:54:47;;;;;;;12.27;7.07;;;;;;;;;;6286234;28;20071;-81
2022/08/21 06:57:49;;;;;;;13.60;7.28;;;;;;;;;;6282309;28;20514;-81
2022/08/21 07:00:53;;;;;;;9.85;6.43;;;;;;;;;;6279706;28;20048;-81
2022/08/21 07:04:01;;;;;;;13.70;7.05;;;;;;;;;;6291588;28;20051;-80
2022/08/21 07:07:03;;;;;;;9.85;6.53;;;;;;;;;;6292342;28;20075;-85
2022/08/21 07:10:13;;;;;;;27.42;8.45;;;;;;;;;;6270466;28;20127;-82
2022/08/21 07:13:23;;;;;;;10.32;6.70;;;;;;;;;;6280380;28;20051;-79
2022/08/21 07:16:25;;;;;;;9.30;6.20;;;;;;;;;;6265520;28;20124;-81
2022/08/21 07:19:26;;;;;;;9.75;5.93;;;;;;;;;;6281540;28;20040;-81
2022/08/21 07:22:28;;;;;;;11.85;6.68;;;;;;;;;;6287560;28;20045;-81
2022/08/21 07:25:31;;;;;;;9.82;6.57;;;;;;;;;;6282132;28;20119;-81
2022/08/21 07:28:33;;;;;;;14.05;6.00;;;;;;;;;;6284100;28;20102;-80
2022/08/21 07:31:34;;;;;;;9.17;6.10;;;;;;;;;;6301338;28;20045;-82
2022/08/21 07:34:36;;;;;;;7.35;5.00;;;;;;;;;;6287392;28;20246;-82
2022/08/21 07:37:37;;;;;;;9.20;5.80;;;;;;;;;;6297413;28;20047;-83
2022/08/21 07:40:39;;;;;;;8.65;5.47;;;;;;;;;;6284305;28;20056;-82
2022/08/21 07:43:41;;;;;;;11.52;5.05;;;;;;;;;;6289948;28;20048;-83
2022/08/21 07:46:46;;;;;;;8.00;5.60;;;;;;;;;;6293060;28;20049;-81
2022/08/21 07:49:48;;;;;;;8.07;5.00;;;;;;;;;;6290613;28;20048;-83
2022/08/21 07:52:49;;;;;;;10.65;5.40;;;;;;;;;;6294487;28;20052;-82
2022/08/21 07:55:51;;;;;;;8.87;5.33;;;;;;;;;;6287537;28;20036;-82
2022/08/21 07:58:53;;;;;;;6.18;4.63;;;;;;;;;;6288078;28;20052;-79
2022/08/21 08:01:56;;;;;;;11.70;4.63;;;;;;;;;;6288181;28;20086;-81
2022/08/21 08:04:58;;;;;;;;;;;;;;;;;;6289362;28;20045;-84
2022/08/21 08:08:00;;;;;;;8.07;4.75;;;;;;;;;;6288233;28;19924;-82
2022/08/21 08:11:02;;;;;;;9.68;4.82;;;;;;;;;;6266019;28;20079;-81
2022/08/21 08:14:04;;;;;;;8.07;6.00;;;;;;;;;;6280885;28;20131;-84
2022/08/21 08:17:05;;;;;;;11.30;5.80;;;;;;;;;;6290270;28;20467;-81
2022/08/21 08:20:08;;;;;;;12.18;6.32;;;;;;;;;;6272343;28;20155;-84
2022/08/21 08:23:14;;;;;;;8.50;5.85;;;;;;;;;;6286536;28;20126;-82
2022/08/21 08:26:19;;;;;;;11.27;5.75;;;;;;;;;;6272486;28;20044;-83
2022/08/21 08:29:23;;;;;;;9.52;5.30;;;;;;;;;;6263317;28;20369;-84
2022/08/21 08:32:26;;;;;;;10.88;6.28;;;;;;;;;;6265024;28;20898;-84
2022/08/21 08:35:40;;;;;;;21.83;8.55;;;;;;;;;;6280675;28;20071;-85
2022/08/21 08:38:43;;;;;;;6.35;3.60;;;;;;;;;;6267905;28;20777;-83
2022/08/21 08:41:47;;;;;;;9.32;4.40;;;;;;;;;;6268101;28;20046;-83
2022/08/21 08:45:07;;;;;;;7.40;4.40;;;;;;;;;;6282011;28;20504;-82
2022/08/21 08:48:14;;;;;;;8.05;3.50;;;;;;;;;;6291068;28;20068;-82
2022/08/21 08:51:21;;;;;;;7.20;3.63;;;;;;;;;;6289427;28;20072;-82
2022/08/21 08:54:33;;;;;;;8.45;4.25;;;;;;;;;;6280940;28;20477;-83
2022/08/21 08:57:39;;;;;;;7.80;4.20;;;;;;;;;;6277044;28;20044;-83
2022/08/21 09:00:41;;;;;;;9.50;4.50;;;;;;;;;;6264486;28;20127;-82
2022/08/21 09:03:49;;;;;;;10.30;4.25;;;;;;;;;;6278941;28;20952;-83
2022/08/21 09:06:58;;;;;;;9.02;4.35;;;;;;;;;;6280800;28;20119;-82
2022/08/21 09:10:28;;;;;;;8.10;3.88;;;;;;;;;;6287284;28;20123;-82
2022/08/21 09:13:59;;;;;;;10.63;3.72;;;;;;;;;;6286313;28;20048;-81
2022/08/21 09:17:26;;;;;;;7.10;3.92;;;;;;;;;;6286946;28;20440;-80
2022/08/21 09:20:51;;;;;;;6.50;3.83;;;;;;;;;;6287868;28;20115;-82
2022/08/21 09:24:02;;;;;;;8.50;4.50;;;;;;;;;;6298563;28;20095;-79
2022/08/21 09:27:08;;;;;;;7.50;3.78;;;;;;;;;;6291709;28;20067;-81
2022/08/21 09:30:10;;;;;;;8.27;4.10;;;;;;;;;;6278353;27;22948;-82
2022/08/21 09:33:13;;;;;;;8.25;4.35;;;;;;;;;;6293643;28;20040;-85
2022/08/21 09:36:31;;;;;;;9.18;4.18;;;;;;;;;;6293592;28;20087;-83
2022/08/21 09:39:39;;;;;;;8.75;3.67;;;;;;;;;;6286629;28;20049;-83
2022/08/21 09:42:55;;;;;;;7.72;3.88;;;;;;;;;;6277106;28;20085;-82
2022/08/21 09:46:21;;;;;;;6.22;3.65;;;;;;;;;;6293134;28;20564;-82
2022/08/21 09:49:35;;;;;;;3.80;2.85;;;;;;;;;;6307907;28;20068;-80
2022/08/21 09:52:48;;;;;;;5.50;2.70;;;;;;;;;;6313323;28;20044;-80
2022/08/21 09:59:23;;;;;;;4.00;2.50;;;;;;;;;;6289133;28;20075;-81
2022/08/21 10:02:32;;;;;;;5.45;2.70;;;;;;;;;;6289348;28;20041;-81
2022/08/21 10:05:33;;;;;;;5.85;3.05;;;;;;;;;;6282228;28;20041;-80
2022/08/21 10:08:37;;;;;;;8.02;2.92;;;;;;;;;;6298464;28;20494;-81
2022/08/21 10:11:43;;;;;;;5.00;2.78;;;;;;;;;;6295545;28;20083;-82
2022/08/21 10:15:12;;;;;;;4.65;3.03;;;;;;;;;;6292971;28;20047;-80
2022/08/21 10:18:27;;;;;;;5.20;2.90;;;;;;;;;;6279723;28;20048;-80
2022/08/21 10:21:43;;;;;;;6.22;3.05;;;;;;;;;;6295851;28;20072;-80
2022/08/21 10:25:40;;;;;;;4.82;2.80;;;;;;;;;;6296611;28;20715;-79
2022/08/21 10:29:21;;;;;;;5.80;2.70;;;;;;;;;;6245611;28;20052;-80
2022/08/21 10:32:55;;;;;;;5.75;3.00;;;;;;;;;;6282629;28;20137;-81
2022/08/21 10:36:03;;;;;;;6.40;3.00;;;;;;;;;;6276346;28;20119;-82
2022/08/21 10:39:32;;;;;;;4.80;2.80;;;;;;;;;;6280376;28;20578;-81
2022/08/21 10:43:14;;;;;;;5.95;2.58;;;;;;;;;;6274844;28;20064;-83
2022/08/21 10:46:37;;;;;;;4.15;2.38;;;;;;;;;;6268762;28;20226;-82
2022/08/21 10:49:39;;;;;;;5.82;2.10;;;;;;;;;;6275476;28;20052;-82
2022/08/21 10:52:44;;;;;;;;;;;;;;;;;;6265535;28;20052;-81
2022/08/21 10:55:56;;;;;;;6.50;2.60;;;;;;;;;;6273269;28;19990;-82
2022/08/21 10:59:03;;;;;;;4.57;2.70;;;;;;;;;;6278211;28;20072;-81
2022/08/21 11:02:17;;;;;;;5.00;2.40;;;;;;;;;;6268925;28;20074;-81
2022/08/21 11:05:27;;;;;;;4.40;2.10;;;;;;;;;;6274166;28;20103;-78
2022/08/21 11:08:40;;;;;;;5.90;2.10;;;;;;;;;;6277741;28;20719;-79
2022/08/21 11:12:10;;;;;;;5.05;2.13;;;;;;;;;;6277888;28;20521;-79
2022/08/21 11:15:31;;;;;;;4.30;2.00;;;;;;;;;;6259061;28;20037;-78
2022/08/21 11:18:43;;;;;;;4.28;1.90;;;;;;;;;;6280058;28;20625;-79
2022/08/21 11:22:03;;;;;;;2.75;2.08;;;;;;;;;;6278978;28;20084;-79
2022/08/21 11:25:16;;;;;;;4.43;2.05;;;;;;;;;;6271527;28;20093;-79
2022/08/21 11:28:32;;;;;;;5.00;2.22;;;;;;;;;;6275575;28;20044;-80
2022/08/21 11:31:48;;;;;;;3.95;2.00;;;;;;;;;;6251877;28;20127;-80
2022/08/21 11:35:08;;;;;;;3.33;1.88;;;;;;;;;;6279885;28;20567;-79
2022/08/21 11:38:34;;;;;;;3.35;1.90;;;;;;;;;;6282037;28;20056;-79
2022/08/21 11:42:01;;;;;;;3.67;1.98;;;;;;;;;;6269658;28;20261;-80
2022/08/21 11:45:17;;;;;;;2.83;1.83;;;;;;;;;;6286514;28;20049;-81
2022/08/21 11:48:30;;;;;;;2.72;1.85;;;;;;;;;;6280384;28;20044;-80
2022/08/21 11:51:35;;;;;;;3.92;1.88;;;;;;;;;;6290484;28;20050;-80
2022/08/21 11:54:43;;;;;;;2.83;1.83;;;;;;;;;;6284541;28;20146;-80
2022/08/21 11:57:58;;;;;;;3.80;2.15;;;;;;;;;;6282566;28;20064;-80
2022/08/21 12:01:05;;;;;;;2.85;1.70;;;;;;;;;;6287924;28;20393;-81
2022/08/21 12:04:18;;;;;;;3.70;1.83;;;;;;;;;;6287124;28;20114;-80
2022/08/21 12:07:53;;;;;;;2.97;1.85;;;;;;;;;;6281883;28;20117;-81
2022/08/21 12:11:09;;;;;;;3.13;1.92;;;;;;;;;;6286947;28;20052;-81
2022/08/21 12:14:15;;;;;;;2.58;1.80;;;;;;;;;;6287738;28;20080;-81
2022/08/21 12:17:23;;;;;;;4.78;2.00;;;;;;;;;;6285177;28;20501;-83
2022/08/21 12:20:38;;;;;;;4.43;1.70;;;;;;;;;;6289425;28;20186;-79
2022/08/21 12:24:16;;;;;;;1.95;1.40;;;;;;;;;;6289837;28;20082;-82
2022/08/21 12:27:30;;;;;;;2.78;1.52;;;;;;;;;;6293137;28;20522;-80
2022/08/21 12:30:43;;;;;;;1.95;1.70;;;;;;;;;;6286736;28;20067;-81
2022/08/21 12:33:51;;;;;;;2.65;1.50;;;;;;;;;;6290738;28;20049;-80
2022/08/21 12:37:00;;;;;;;2.97;1.73;;;;;;;;;;6286309;28;20102;-80
2022/08/21 12:40:09;;;;;;;2.60;1.90;;;;;;;;;;6280978;28;20527;-79
2022/08/21 12:43:16;;;;;;;2.90;1.70;;;;;;;;;;6289574;28;20044;-80
2022/08/21 12:46:21;;;;;;;2.28;1.50;;;;;;;;;;6288642;28;20494;-80
2022/08/21 12:49:34;;;;;;;3.17;1.50;;;;;;;;;;6293258;28;20056;-80
2022/08/21 12:52:43;;;;;;;1.75;1.33;;;;;;;;;;6292753;28;20049;-79
2022/08/21 12:55:45;;;;;;;2.47;1.80;;;;;;;;;;6283328;28;20138;-79
2022/08/21 12:58:50;;;;;;;2.80;1.25;;;;;;;;;;6292407;28;20071;-79
2022/08/21 13:01:54;;;;;;;2.22;1.30;;;;;;;;;;6288635;28;20121;-80
2022/08/21 13:04:57;;;;;;;2.33;1.25;;;;;;;;;;6293103;28;20059;-81
2022/08/21 13:08:04;;;;;;;3.17;1.40;;;;;;;;;;6276322;28;20071;-79
2022/08/21 13:11:06;;;;;;;3.25;1.58;;;;;;;;;;6289034;28;20064;-80
2022/08/21 13:14:31;;;;;;;1.38;1.15;;;;;;;;;;6290456;28;20040;-79
2022/08/21 13:17:36;;;;;;;2.95;1.60;;;;;;;;;;6288145;28;20044;-79
2022/08/21 13:20:43;;;;;;;2.05;1.33;;;;;;;;;;6281958;28;20045;-79
2022/08/21 13:23:44;;;;;;;2.63;1.25;;;;;;;;;;6295049;28;20149;-79
2022/08/21 13:26:50;;;;;;;3.08;1.08;;;;;;;;;;6286394;28;20054;-80
2022/08/21 13:30:20;;;;;;;2.63;1.40;;;;;;;;;;6288289;28;20064;-79
2022/08/21 13:33:25;;;;;;;3.50;1.20;;;;;;;;;;6284868;28;20123;-80
2022/08/21 13:36:42;;;;;;;2.58;1.30;;;;;;;;;;6278301;28;20049;-80
2022/08/21 13:39:52;;;;;;;2.33;1.05;;;;;;;;;;6286103;28;21937;-79
2022/08/21 13:42:54;;;;;;;2.53;1.15;;;;;;;;;;6279193;28;20040;-79
2022/08/21 13:45:57;;;;;;;1.73;1.00;;;;;;;;;;6266065;28;20573;-77
2022/08/21 13:49:01;;;;;;;1.42;1.02;;;;;;;;;;6283313;28;20135;-79
2022/08/21 13:52:06;;;;;;;2.08;0.90;;;;;;;;;;6279608;28;20060;-79
2022/08/21 13:55:12;;;;;;;2.30;1.23;;;;;;;;;;6270939;28;20040;-78
2022/08/21 13:58:25;;;;;;;3.10;1.30;;;;;;;;;;6283514;28;20086;-79
2022/08/21 14:01:33;;;;;;;2.45;1.25;;;;;;;;;;6282586;28;20055;-80
2022/08/21 14:04:38;;;;;;;3.45;1.20;;;;;;;;;;6281875;28;20118;-79
2022/08/21 14:07:44;;;;;;;2.97;1.10;;;;;;;;;;6278441;28;20053;-79
2022/08/21 14:10:51;;;;;;;1.90;1.00;;;;;;;;;;6279982;28;20100;-78
2022/08/21 14:14:03;;;;;;;2.38;1.20;;;;;;;;;;6281606;28;20055;-79
2022/08/21 14:17:11;;;;;;;2.53;1.13;;;;;;;;;;6280899;28;20045;-78
2022/08/21 14:20:34;;;;;;;2.30;1.30;;;;;;;;;;6265554;28;20041;-77
2022/08/21 14:23:36;;;;;;;1.88;1.10;;;;;;;;;;6281657;28;20052;-78
2022/08/21 14:27:04;;;;;;;1.30;1.10;;;;;;;;;;6283131;28;20056;-79
2022/08/21 14:30:17;;;;;;;1.58;1.20;;;;;;;;;;6270755;28;20529;-78
2022/08/21 14:33:28;;;;;;;2.80;1.23;;;;;;;;;;6295019;28;20580;-79
2022/08/21 14:36:30;;;;;;;5.10;1.35;;;;;;;;;;6269526;28;20048;-79
2022/08/21 14:39:31;;;;;;;2.15;1.17;;;;;;;;;;6279680;28;20175;-78
2022/08/21 14:42:33;;;;;;;2.38;1.40;;;;;;;;;;6283909;28;21494;-78
2022/08/21 14:45:40;;;;;;;1.67;1.10;;;;;;;;;;6280300;28;20494;-78
2022/08/21 14:48:42;;;;;;;2.38;1.20;;;;;;;;;;6285008;28;20040;-77
2022/08/21 14:51:44;;;;;;;1.98;1.13;;;;;;;;;;6284778;28;20122;-78
2022/08/21 14:54:55;;;;;;;1.73;1.40;;;;;;;;;;6278855;28;20044;-78
2022/08/21 14:57:56;;;;;;;2.33;1.27;;;;;;;;;;6285169;28;20126;-79
2022/08/21 15:00:58;;;;;;;2.47;1.10;;;;;;;;;;6282630;28;20045;-78
2022/08/21 15:04:00;;;;;;;3.08;1.25;;;;;;;;;;6285191;28;20071;-77
2022/08/21 15:07:02;;;;;;;2.40;1.17;;;;;;;;;;6283441;28;20041;-77
2022/08/21 15:10:07;;;;;;;2.30;1.35;;;;;;;;;;6278249;28;20118;-77
2022/08/21 15:13:10;;;;;;;1.50;1.20;;;;;;;;;;6276256;28;20044;-77
2022/08/21 15:16:12;;;;;;;;;;;;;;;;;;6288623;28;20107;-81
2022/08/21 15:19:14;;;;;;;2.22;1.10;;;;;;;;;;6294657;28;19993;-80
2022/08/21 15:22:15;;;;;;;1.65;1.02;;;;;;;;;;6289737;28;20131;-80
2022/08/21 15:25:28;;;;;;;2.28;1.10;;;;;;;;;;6285215;28;20498;-81
2022/08/21 15:28:30;;;;;;;;;;;;;;;;;;6282492;28;20067;-79
2022/08/21 15:31:32;;;;;;;2.45;0.95;;;;;;;;;;6288843;28;19920;-81
2022/08/21 15:34:34;;;;;;;2.22;1.00;;;;;;;;;;6289766;28;20111;-83
2022/08/21 15:37:36;;;;;;;2.33;1.20;;;;;;;;;;6280339;28;20048;-80
2022/08/21 15:40:39;;;;;;;1.88;1.05;;;;;;;;;;6292217;28;20131;-80
2022/08/21 15:43:53;;;;;;;3.85;1.20;;;;;;;;;;6293259;28;20528;-80
2022/08/21 15:46:56;;;;;;;5.70;1.30;;;;;;;;;;6281789;28;20049;-79
2022/08/21 15:49:58;;;;;;;1.95;1.38;;;;;;;;;;6288105;28;20093;-78
2022/08/21 15:52:59;;;;;;;2.45;1.10;;;;;;;;;;6283420;28;20094;-79
2022/08/21 15:56:02;;;;;;;2.45;1.20;;;;;;;;;;6283306;28;20525;-78
2022/08/21 15:59:06;;;;;;;1.55;1.00;;;;;;;;;;6292456;28;20068;-78
2022/08/21 16:02:23;;;;;;;1.73;1.17;;;;;;;;;;6282729;28;20445;-79
2022/08/21 16:05:24;;;;;;;2.83;0.95;;;;;;;;;;6293158;28;20101;-77
2022/08/21 16:08:26;;;;;;;3.15;1.17;;;;;;;;;;6284240;28;20123;-76
2022/08/21 16:11:28;;;;;;;2.28;0.90;;;;;;;;;;6278790;28;20065;-78
2022/08/21 16:14:30;;;;;;;1.42;1.13;;;;;;;;;;6277107;28;20150;-78
2022/08/21 16:17:34;;;;;;;2.80;1.08;;;;;;;;;;6282980;28;20064;-79
2022/08/21 16:20:36;;;;;;;3.45;1.23;;;;;;;;;;6280782;27;20566;-78
2022/08/21 16:23:39;;;;;;;1.67;1.00;;;;;;;;;;6291752;28;20063;-78
2022/08/21 16:26:40;;;;;;;1.55;1.10;;;;;;;;;;6282650;28;20215;-80
2022/08/21 16:29:45;;;;;;;2.00;1.00;;;;;;;;;;6288172;28;20040;-77
2022/08/21 16:32:47;;;;;;;2.03;1.10;;;;;;;;;;6283228;28;20138;-78
2022/08/21 16:35:50;;;;;;;1.75;1.00;;;;;;;;;;6283627;28;20072;-77
2022/08/21 16:38:53;;;;;;;;;;;;;;;;;;6284797;28;20185;-78
2022/08/21 16:41:55;;;;;;;2.25;1.00;;;;;;;;;;6279285;28;19985;-80
2022/08/21 16:44:56;;;;;;;2.17;1.05;;;;;;;;;;6281502;28;20103;-79
2022/08/21 16:47:58;;;;;;;2.40;1.00;;;;;;;;;;6278833;28;20121;-80
2022/08/21 16:51:00;;;;;;;2.53;1.10;;;;;;;;;;6278571;28;20056;-79
2022/08/21 16:54:02;;;;;;;1.80;1.20;;;;;;;;;;6274571;28;20598;-78
2022/08/21 16:57:04;;;;;;;2.97;1.08;;;;;;;;;;6285537;28;20659;-80
2022/08/21 17:00:10;;;;;;;1.40;1.00;;;;;;;;;;6276649;28;20171;-79
2022/08/21 17:03:15;;;;;;;3.08;1.17;;;;;;;;;;6279129;28;20126;-79
2022/08/21 17:06:18;;;;;;;2.47;1.13;;;;;;;;;;6273091;28;20090;-78
2022/08/21 17:09:20;;;;;;;1.60;0.98;;;;;;;;;;6266317;28;20509;-79
2022/08/21 17:12:22;;;;;;;2.50;1.10;;;;;;;;;;6274724;28;20724;-80
2022/08/21 17:15:30;;;;;;;2.78;1.10;;;;;;;;;;6276367;28;20044;-80
2022/08/21 17:18:31;;;;;;;1.52;0.80;;;;;;;;;;6282881;28;20185;-80
2022/08/21 17:21:33;;;;;;;1.90;0.90;;;;;;;;;;6278400;28;20507;-80
2022/08/21 17:24:36;;;;;;;3.37;1.00;;;;;;;;;;6279463;28;20182;-79
2022/08/21 17:27:39;;;;;;;1.63;1.05;;;;;;;;;;6280895;28;20954;-79
2022/08/21 17:30:44;;;;;;;1.70;1.00;;;;;;;;;;6276046;28;20137;-78
2022/08/21 17:33:50;;;;;;;2.67;1.10;;;;;;;;;;6278963;28;20081;-79
2022/08/21 17:36:52;;;;;;;2.17;1.20;;;;;;;;;;6281937;28;20108;-80
2022/08/21 17:39:53;;;;;;;2.97;1.10;;;;;;;;;;6280868;28;20115;-79
2022/08/21 17:42:56;;;;;;;1.13;0.97;;;;;;;;;;6283553;28;20334;-80
2022/08/21 17:45:59;;;;;;;1.65;1.20;;;;;;;;;;6277845;28;20056;-79
2022/08/21 17:49:00;;;;;;;1.80;1.10;;;;;;;;;;6284402;28;20123;-77
2022/08/21 17:52:03;;;;;;;1.55;0.98;;;;;;;;;;6280142;28;20044;-75
2022/08/21 17:55:05;;;;;;;1.27;0.88;;;;;;;;;;6278767;28;20459;-77
2022/08/21 17:58:11;;;;;;;2.13;1.00;;;;;;;;;;6282458;28;20099;-77
2022/08/21 18:01:13;;;;;;;1.35;0.80;;;;;;;;;;6267460;28;20044;-78
2022/08/21 18:04:15;;;;;;;3.57;1.10;;;;;;;;;;6273990;28;20049;-77
2022/08/21 18:07:18;;;;;;;2.72;1.00;;;;;;;;;;6289644;28;20458;-79
2022/08/21 18:10:33;;;;;;;1.50;1.05;;;;;;;;;;6283299;28;20103;-77
2022/08/21 18:13:36;;;;;;;3.63;1.13;;;;;;;;;;6290090;28;20580;-77
2022/08/21 18:16:38;;;;;;;2.10;1.08;;;;;;;;;;6283654;28;20124;-77
2022/08/21 18:19:40;;;;;;;2.77;1.00;;;;;;;;;;6289356;28;20076;-76
2022/08/21 18:22:49;;;;;;;3.83;1.08;;;;;;;;;;6278636;28;20053;-78
2022/08/21 18:25:54;;;;;;;2.17;0.77;;;;;;;;;;6284893;28;20067;-80
2022/08/21 18:28:59;;;;;;;2.78;1.00;;;;;;;;;;6290885;28;20559;-77
2022/08/21 18:32:03;;;;;;;2.58;0.98;;;;;;;;;;6284084;28;20056;-78
2022/08/21 18:35:15;;;;;;;7.53;1.60;;;;;;;;;;6288827;28;20461;-75